sensor_id;sensor_type;location;lat;lon;timestamp;P1;durP1;ratioP1;P2;durP2;ratioP2
17372;SDS011;8803;48.116;11.590;2023-11-19T00:00:49;1.80;;;1.53;;
17372;SDS011;8803;48.116;11.590;2023-11-19T00:02:54;1.83;;;1.50;;
17372;SDS011;8803;48.116;11.590;2023-11-19T00:05:08;2.07;;;1.87;;
17372;SDS011;8803;48.116;11.590;2023-11-19T00:07:13;1.60;;;1.50;;
17372;SDS011;8803;48.116;11.590;2023-11-19T00:09:26;1.77;;;1.60;;
17372;SDS011;8803;48.116;11.590;2023-11-19T00:11:30;1.70;;;1.60;;
17372;SDS011;8803;48.116;11.590;2023-11-19T00:13:43;1.63;;;1.53;;
17372;SDS011;8803;48.116;11.590;2023-11-19T00:15:47;2.83;;;2.33;;
17372;SDS011;8803;48.116;11.590;2023-11-19T00:18:01;2.03;;;1.83;;
17372;SDS011;8803;48.116;11.590;2023-11-19T00:20:08;1.83;;;1.73;;
17372;SDS011;8803;48.116;11.590;2023-11-19T00:22:13;2.03;;;1.90;;
17372;SDS011;8803;48.116;11.590;2023-11-19T00:24:26;1.90;;;1.80;;
17372;SDS011;8803;48.116;11.590;2023-11-19T00:26:31;1.80;;;1.60;;
17372;SDS011;8803;48.116;11.590;2023-11-19T00:28:44;1.83;;;1.73;;
17372;SDS011;8803;48.116;11.590;2023-11-19T00:30:50;1.53;;;1.43;;
17372;SDS011;8803;48.116;11.590;2023-11-19T00:33:03;1.70;;;1.60;;
17372;SDS011;8803;48.116;11.590;2023-11-19T00:35:08;1.50;;;1.40;;
17372;SDS011;8803;48.116;11.590;2023-11-19T00:37:21;1.67;;;1.57;;
17372;SDS011;8803;48.116;11.590;2023-11-19T00:39:25;1.40;;;1.30;;
17372;SDS011;8803;48.116;11.590;2023-11-19T00:41:38;1.70;;;1.60;;
17372;SDS011;8803;48.116;11.590;2023-11-19T00:43:42;1.37;;;1.27;;
17372;SDS011;8803;48.116;11.590;2023-11-19T00:45:55;1.70;;;1.37;;
17372;SDS011;8803;48.116;11.590;2023-11-19T00:48:00;1.70;;;1.60;;
17372;SDS011;8803;48.116;11.590;2023-11-19T00:50:13;1.60;;;1.47;;
17372;SDS011;8803;48.116;11.590;2023-11-19T00:52:17;2.20;;;1.50;;
17372;SDS011;8803;48.116;11.590;2023-11-19T00:54:23;1.50;;;1.30;;
17372;SDS011;8803;48.116;11.590;2023-11-19T00:56:27;1.60;;;1.50;;
17372;SDS011;8803;48.116;11.590;2023-11-19T00:58:40;1.70;;;1.60;;
17372;SDS011;8803;48.116;11.590;2023-11-19T01:00:45;1.50;;;1.40;;
17372;SDS011;8803;48.116;11.590;2023-11-19T01:02:58;1.33;;;1.23;;
17372;SDS011;8803;48.116;11.590;2023-11-19T01:05:02;1.60;;;1.50;;
17372;SDS011;8803;48.116;11.590;2023-11-19T01:07:16;1.60;;;1.50;;
17372;SDS011;8803;48.116;11.590;2023-11-19T01:09:22;1.73;;;1.30;;
17372;SDS011;8803;48.116;11.590;2023-11-19T01:11:35;1.40;;;1.30;;
17372;SDS011;8803;48.116;11.590;2023-11-19T01:13:40;1.53;;;1.40;;
17372;SDS011;8803;48.116;11.590;2023-11-19T01:15:53;1.17;;;1.07;;
17372;SDS011;8803;48.116;11.590;2023-11-19T01:17:58;1.80;;;1.47;;
17372;SDS011;8803;48.116;11.590;2023-11-19T01:20:11;1.40;;;1.30;;
17372;SDS011;8803;48.116;11.590;2023-11-19T01:22:16;1.50;;;1.40;;
17372;SDS011;8803;48.116;11.590;2023-11-19T01:24:21;1.83;;;1.27;;
17372;SDS011;8803;48.116;11.590;2023-11-19T01:26:34;1.60;;;1.40;;
17372;SDS011;8803;48.116;11.590;2023-11-19T01:28:39;1.40;;;1.30;;
17372;SDS011;8803;48.116;11.590;2023-11-19T01:30:52;1.77;;;1.20;;
17372;SDS011;8803;48.116;11.590;2023-11-19T01:32:56;1.33;;;1.13;;
17372;SDS011;8803;48.116;11.590;2023-11-19T01:35:09;1.50;;;1.03;;
17372;SDS011;8803;48.116;11.590;2023-11-19T01:37:16;1.07;;;0.97;;
17372;SDS011;8803;48.116;11.590;2023-11-19T01:39:29;0.90;;;0.90;;
17372;SDS011;8803;48.116;11.590;2023-11-19T01:41:34;1.27;;;1.07;;
17372;SDS011;8803;48.116;11.590;2023-11-19T01:43:48;2.13;;;1.20;;
17372;SDS011;8803;48.116;11.590;2023-11-19T01:45:52;1.23;;;1.13;;
17372;SDS011;8803;48.116;11.590;2023-11-19T01:48:05;1.10;;;1.00;;
17372;SDS011;8803;48.116;11.590;2023-11-19T01:50:12;0.87;;;0.80;;
17372;SDS011;8803;48.116;11.590;2023-11-19T01:52:16;1.20;;;1.00;;
17372;SDS011;8803;48.116;11.590;2023-11-19T01:54:30;1.07;;;0.97;;
17372;SDS011;8803;48.116;11.590;2023-11-19T01:56:34;1.20;;;1.10;;
17372;SDS011;8803;48.116;11.590;2023-11-19T01:58:41;1.43;;;1.13;;
17372;SDS011;8803;48.116;11.590;2023-11-19T02:00:56;0.90;;;0.90;;
17372;SDS011;8803;48.116;11.590;2023-11-19T02:03:01;1.30;;;1.20;;
17372;SDS011;8803;48.116;11.590;2023-11-19T02:05:14;1.00;;;0.90;;
17372;SDS011;8803;48.116;11.590;2023-11-19T02:07:19;1.00;;;1.00;;
17372;SDS011;8803;48.116;11.590;2023-11-19T02:09:32;0.70;;;0.70;;
17372;SDS011;8803;48.116;11.590;2023-11-19T02:13:48;3.00;;;1.10;;
17372;SDS011;8803;48.116;11.590;2023-11-19T02:15:52;1.10;;;1.00;;
17372;SDS011;8803;48.116;11.590;2023-11-19T02:18:18;1.10;;;1.00;;
17372;SDS011;8803;48.116;11.590;2023-11-19T02:20:23;1.37;;;0.97;;
17372;SDS011;8803;48.116;11.590;2023-11-19T02:22:36;1.30;;;1.10;;
17372;SDS011;8803;48.116;11.590;2023-11-19T02:24:41;1.23;;;0.93;;
17372;SDS011;8803;48.116;11.590;2023-11-19T02:26:56;1.10;;;1.00;;
17372;SDS011;8803;48.116;11.590;2023-11-19T02:29:01;1.30;;;1.00;;
17372;SDS011;8803;48.116;11.590;2023-11-19T02:31:14;1.00;;;0.80;;
17372;SDS011;8803;48.116;11.590;2023-11-19T02:33:20;1.27;;;1.00;;
17372;SDS011;8803;48.116;11.590;2023-11-19T02:35:33;1.97;;;1.20;;
17372;SDS011;8803;48.116;11.590;2023-11-19T02:37:38;1.50;;;1.30;;
17372;SDS011;8803;48.116;11.590;2023-11-19T02:39:51;1.40;;;1.10;;
17372;SDS011;8803;48.116;11.590;2023-11-19T02:41:56;1.43;;;1.13;;
17372;SDS011;8803;48.116;11.590;2023-11-19T02:44:09;1.23;;;1.07;;
17372;SDS011;8803;48.116;11.590;2023-11-19T02:48:26;1.20;;;1.10;;
17372;SDS011;8803;48.116;11.590;2023-11-19T02:50:31;1.10;;;1.00;;
17372;SDS011;8803;48.116;11.590;2023-11-19T02:52:36;1.63;;;0.80;;
17372;SDS011;8803;48.116;11.590;2023-11-19T02:54:49;0.80;;;0.80;;
17372;SDS011;8803;48.116;11.590;2023-11-19T02:56:54;1.37;;;0.80;;
17372;SDS011;8803;48.116;11.590;2023-11-19T02:59:06;0.97;;;0.80;;
17372;SDS011;8803;48.116;11.590;2023-11-19T03:01:13;0.73;;;0.73;;
17372;SDS011;8803;48.116;11.590;2023-11-19T03:03:26;1.10;;;0.80;;
17372;SDS011;8803;48.116;11.590;2023-11-19T03:05:32;1.17;;;1.00;;
17372;SDS011;8803;48.116;11.590;2023-11-19T03:07:45;1.00;;;0.97;;
17372;SDS011;8803;48.116;11.590;2023-11-19T03:09:58;0.80;;;0.70;;
17372;SDS011;8803;48.116;11.590;2023-11-19T03:12:04;1.03;;;0.90;;
17372;SDS011;8803;48.116;11.590;2023-11-19T03:14:09;1.00;;;0.77;;
17372;SDS011;8803;48.116;11.590;2023-11-19T03:16:14;0.67;;;0.67;;
17372;SDS011;8803;48.116;11.590;2023-11-19T03:18:18;0.90;;;0.90;;
17372;SDS011;8803;48.116;11.590;2023-11-19T03:20:23;0.70;;;0.70;;
17372;SDS011;8803;48.116;11.590;2023-11-19T03:22:30;0.77;;;0.73;;
17372;SDS011;8803;48.116;11.590;2023-11-19T03:24:51;0.77;;;0.77;;
17372;SDS011;8803;48.116;11.590;2023-11-19T03:26:56;0.70;;;0.70;;
17372;SDS011;8803;48.116;11.590;2023-11-19T03:29:09;0.70;;;0.60;;
17372;SDS011;8803;48.116;11.590;2023-11-19T03:31:13;1.20;;;0.80;;
17372;SDS011;8803;48.116;11.590;2023-11-19T03:33:26;0.77;;;0.77;;
17372;SDS011;8803;48.116;11.590;2023-11-19T03:35:31;1.03;;;0.80;;
17372;SDS011;8803;48.116;11.590;2023-11-19T03:37:44;1.07;;;0.57;;
17372;SDS011;8803;48.116;11.590;2023-11-19T03:39:48;0.80;;;0.80;;
17372;SDS011;8803;48.116;11.590;2023-11-19T03:42:01;0.70;;;0.70;;
17372;SDS011;8803;48.116;11.590;2023-11-19T03:44:06;0.73;;;0.73;;
17372;SDS011;8803;48.116;11.590;2023-11-19T03:46:17;1.27;;;0.90;;
17372;SDS011;8803;48.116;11.590;2023-11-19T03:50:34;0.80;;;0.80;;
17372;SDS011;8803;48.116;11.590;2023-11-19T03:52:38;0.93;;;0.80;;
17372;SDS011;8803;48.116;11.590;2023-11-19T03:54:43;0.73;;;0.73;;
17372;SDS011;8803;48.116;11.590;2023-11-19T03:56:56;1.53;;;1.00;;
17372;SDS011;8803;48.116;11.590;2023-11-19T03:59:01;1.20;;;0.80;;
17372;SDS011;8803;48.116;11.590;2023-11-19T04:01:14;0.80;;;0.80;;
17372;SDS011;8803;48.116;11.590;2023-11-19T04:03:18;0.70;;;0.70;;
17372;SDS011;8803;48.116;11.590;2023-11-19T04:05:31;0.80;;;0.80;;
17372;SDS011;8803;48.116;11.590;2023-11-19T04:07:35;1.63;;;0.80;;
17372;SDS011;8803;48.116;11.590;2023-11-19T04:09:48;0.93;;;0.83;;
17372;SDS011;8803;48.116;11.590;2023-11-19T04:11:53;0.93;;;0.70;;
17372;SDS011;8803;48.116;11.590;2023-11-19T04:14:05;0.97;;;0.60;;
17372;SDS011;8803;48.116;11.590;2023-11-19T04:16:11;0.70;;;0.70;;
17372;SDS011;8803;48.116;11.590;2023-11-19T04:18:15;1.07;;;0.87;;
17372;SDS011;8803;48.116;11.590;2023-11-19T04:20:28;0.87;;;0.87;;
17372;SDS011;8803;48.116;11.590;2023-11-19T04:22:33;0.77;;;0.77;;
17372;SDS011;8803;48.116;11.590;2023-11-19T04:24:46;0.67;;;0.67;;
17372;SDS011;8803;48.116;11.590;2023-11-19T04:26:51;1.50;;;0.77;;
17372;SDS011;8803;48.116;11.590;2023-11-19T04:29:04;0.60;;;0.60;;
17372;SDS011;8803;48.116;11.590;2023-11-19T04:31:10;1.53;;;1.00;;
17372;SDS011;8803;48.116;11.590;2023-11-19T04:33:23;0.87;;;0.87;;
17372;SDS011;8803;48.116;11.590;2023-11-19T04:35:27;1.10;;;0.80;;
17372;SDS011;8803;48.116;11.590;2023-11-19T04:37:40;0.97;;;0.70;;
17372;SDS011;8803;48.116;11.590;2023-11-19T04:39:45;0.70;;;0.70;;
17372;SDS011;8803;48.116;11.590;2023-11-19T04:41:58;0.80;;;0.80;;
17372;SDS011;8803;48.116;11.590;2023-11-19T04:44:03;0.70;;;0.70;;
17372;SDS011;8803;48.116;11.590;2023-11-19T04:46:35;0.63;;;0.63;;
17372;SDS011;8803;48.116;11.590;2023-11-19T04:48:39;1.30;;;0.80;;
17372;SDS011;8803;48.116;11.590;2023-11-19T04:50:52;1.30;;;0.70;;
17372;SDS011;8803;48.116;11.590;2023-11-19T04:52:57;1.03;;;0.70;;
17372;SDS011;8803;48.116;11.590;2023-11-19T04:57:13;0.70;;;0.60;;
17372;SDS011;8803;48.116;11.590;2023-11-19T04:59:17;0.70;;;0.60;;
17372;SDS011;8803;48.116;11.590;2023-11-19T05:01:30;0.60;;;0.60;;
17372;SDS011;8803;48.116;11.590;2023-11-19T05:03:35;0.70;;;0.47;;
17372;SDS011;8803;48.116;11.590;2023-11-19T05:05:48;0.40;;;0.40;;
17372;SDS011;8803;48.116;11.590;2023-11-19T05:10:06;0.43;;;0.43;;
17372;SDS011;8803;48.116;11.590;2023-11-19T05:12:11;0.57;;;0.40;;
17372;SDS011;8803;48.116;11.590;2023-11-19T05:14:24;0.40;;;0.40;;
17372;SDS011;8803;48.116;11.590;2023-11-19T05:16:29;0.40;;;0.40;;
17372;SDS011;8803;48.116;11.590;2023-11-19T05:18:33;0.40;;;0.40;;
17372;SDS011;8803;48.116;11.590;2023-11-19T05:20:46;0.60;;;0.40;;
17372;SDS011;8803;48.116;11.590;2023-11-19T05:25:03;0.77;;;0.50;;
17372;SDS011;8803;48.116;11.590;2023-11-19T05:27:10;0.40;;;0.40;;
17372;SDS011;8803;48.116;11.590;2023-11-19T05:29:23;0.67;;;0.50;;
17372;SDS011;8803;48.116;11.590;2023-11-19T05:31:28;0.70;;;0.50;;
17372;SDS011;8803;48.116;11.590;2023-11-19T05:33:41;0.40;;;0.40;;
17372;SDS011;8803;48.116;11.590;2023-11-19T05:35:45;0.40;;;0.40;;
17372;SDS011;8803;48.116;11.590;2023-11-19T05:37:58;0.40;;;0.40;;
17372;SDS011;8803;48.116;11.590;2023-11-19T05:40:05;0.50;;;0.50;;
17372;SDS011;8803;48.116;11.590;2023-11-19T05:42:15;1.23;;;0.63;;
17372;SDS011;8803;48.116;11.590;2023-11-19T05:44:20;0.73;;;0.60;;
17372;SDS011;8803;48.116;11.590;2023-11-19T05:46:24;0.93;;;0.60;;
17372;SDS011;8803;48.116;11.590;2023-11-19T05:48:37;0.47;;;0.40;;
17372;SDS011;8803;48.116;11.590;2023-11-19T05:50:41;0.63;;;0.43;;
17372;SDS011;8803;48.116;11.590;2023-11-19T05:52:54;0.60;;;0.60;;
17372;SDS011;8803;48.116;11.590;2023-11-19T05:54:59;0.73;;;0.50;;
17372;SDS011;8803;48.116;11.590;2023-11-19T05:57:12;1.03;;;0.50;;
17372;SDS011;8803;48.116;11.590;2023-11-19T05:59:18;0.93;;;0.57;;
17372;SDS011;8803;48.116;11.590;2023-11-19T06:01:31;0.60;;;0.50;;
17372;SDS011;8803;48.116;11.590;2023-11-19T06:03:37;0.63;;;0.53;;
17372;SDS011;8803;48.116;11.590;2023-11-19T06:05:50;0.60;;;0.40;;
17372;SDS011;8803;48.116;11.590;2023-11-19T06:10:07;0.40;;;0.40;;
17372;SDS011;8803;48.116;11.590;2023-11-19T06:12:14;0.40;;;0.40;;
17372;SDS011;8803;48.116;11.590;2023-11-19T06:14:18;0.43;;;0.43;;
17372;SDS011;8803;48.116;11.590;2023-11-19T06:16:31;0.50;;;0.40;;
17372;SDS011;8803;48.116;11.590;2023-11-19T06:18:36;0.43;;;0.43;;
17372;SDS011;8803;48.116;11.590;2023-11-19T06:20:49;1.03;;;0.60;;
17372;SDS011;8803;48.116;11.590;2023-11-19T06:22:53;0.30;;;0.30;;
17372;SDS011;8803;48.116;11.590;2023-11-19T06:25:08;0.50;;;0.40;;
17372;SDS011;8803;48.116;11.590;2023-11-19T06:27:13;0.57;;;0.43;;
17372;SDS011;8803;48.116;11.590;2023-11-19T06:29:26;0.50;;;0.50;;
17372;SDS011;8803;48.116;11.590;2023-11-19T06:31:30;0.67;;;0.50;;
17372;SDS011;8803;48.116;11.590;2023-11-19T06:33:43;0.60;;;0.40;;
17372;SDS011;8803;48.116;11.590;2023-11-19T06:35:48;0.53;;;0.40;;
17372;SDS011;8803;48.116;11.590;2023-11-19T06:37:52;0.83;;;0.40;;
17372;SDS011;8803;48.116;11.590;2023-11-19T06:39:57;0.47;;;0.33;;
17372;SDS011;8803;48.116;11.590;2023-11-19T06:42:10;0.40;;;0.40;;
17372;SDS011;8803;48.116;11.590;2023-11-19T06:44:14;0.70;;;0.50;;
17372;SDS011;8803;48.116;11.590;2023-11-19T06:46:27;0.40;;;0.40;;
17372;SDS011;8803;48.116;11.590;2023-11-19T06:48:32;0.40;;;0.40;;
17372;SDS011;8803;48.116;11.590;2023-11-19T06:50:45;0.33;;;0.30;;
17372;SDS011;8803;48.116;11.590;2023-11-19T06:52:49;1.60;;;0.40;;
17372;SDS011;8803;48.116;11.590;2023-11-19T06:54:53;0.30;;;0.30;;
17372;SDS011;8803;48.116;11.590;2023-11-19T06:57:06;0.30;;;0.30;;
17372;SDS011;8803;48.116;11.590;2023-11-19T06:59:11;0.20;;;0.20;;
17372;SDS011;8803;48.116;11.590;2023-11-19T07:01:24;0.60;;;0.30;;
17372;SDS011;8803;48.116;11.590;2023-11-19T07:03:28;0.30;;;0.30;;
17372;SDS011;8803;48.116;11.590;2023-11-19T07:05:41;1.07;;;0.50;;
17372;SDS011;8803;48.116;11.590;2023-11-19T07:09:57;0.37;;;0.37;;
17372;SDS011;8803;48.116;11.590;2023-11-19T07:12:05;0.40;;;0.40;;
17372;SDS011;8803;48.116;11.590;2023-11-19T07:14:18;0.30;;;0.30;;
17372;SDS011;8803;48.116;11.590;2023-11-19T07:16:24;0.30;;;0.30;;
17372;SDS011;8803;48.116;11.590;2023-11-19T07:18:28;0.27;;;0.27;;
17372;SDS011;8803;48.116;11.590;2023-11-19T07:20:41;0.40;;;0.40;;
17372;SDS011;8803;48.116;11.590;2023-11-19T07:22:47;0.20;;;0.20;;
17372;SDS011;8803;48.116;11.590;2023-11-19T07:25:00;0.20;;;0.20;;
17372;SDS011;8803;48.116;11.590;2023-11-19T07:27:04;0.30;;;0.23;;
17372;SDS011;8803;48.116;11.590;2023-11-19T07:29:17;0.40;;;0.40;;
17372;SDS011;8803;48.116;11.590;2023-11-19T07:31:23;0.50;;;0.30;;
17372;SDS011;8803;48.116;11.590;2023-11-19T07:33:29;0.40;;;0.40;;
17372;SDS011;8803;48.116;11.590;2023-11-19T07:35:42;0.40;;;0.40;;
17372;SDS011;8803;48.116;11.590;2023-11-19T07:37:47;0.53;;;0.40;;
17372;SDS011;8803;48.116;11.590;2023-11-19T07:40:00;0.30;;;0.30;;
17372;SDS011;8803;48.116;11.590;2023-11-19T07:42:05;0.30;;;0.30;;
17372;SDS011;8803;48.116;11.590;2023-11-19T07:44:18;0.50;;;0.50;;
17372;SDS011;8803;48.116;11.590;2023-11-19T07:46:23;0.97;;;0.90;;
17372;SDS011;8803;48.116;11.590;2023-11-19T07:48:36;0.60;;;0.60;;
17372;SDS011;8803;48.116;11.590;2023-11-19T07:50:40;0.30;;;0.30;;
17372;SDS011;8803;48.116;11.590;2023-11-19T07:52:53;0.40;;;0.40;;
17372;SDS011;8803;48.116;11.590;2023-11-19T07:57:09;0.70;;;0.30;;
17372;SDS011;8803;48.116;11.590;2023-11-19T07:59:14;0.40;;;0.40;;
17372;SDS011;8803;48.116;11.590;2023-11-19T08:01:27;0.70;;;0.60;;
17372;SDS011;8803;48.116;11.590;2023-11-19T08:03:31;0.63;;;0.60;;
17372;SDS011;8803;48.116;11.590;2023-11-19T08:05:44;0.40;;;0.40;;
17372;SDS011;8803;48.116;11.590;2023-11-19T08:10:04;0.20;;;0.20;;
17372;SDS011;8803;48.116;11.590;2023-11-19T08:12:11;0.20;;;0.20;;
17372;SDS011;8803;48.116;11.590;2023-11-19T08:14:17;0.60;;;0.50;;
17372;SDS011;8803;48.116;11.590;2023-11-19T08:16:30;0.40;;;0.40;;
17372;SDS011;8803;48.116;11.590;2023-11-19T08:18:34;0.40;;;0.40;;
17372;SDS011;8803;48.116;11.590;2023-11-19T08:20:47;0.30;;;0.30;;
17372;SDS011;8803;48.116;11.590;2023-11-19T08:22:53;0.47;;;0.47;;
17372;SDS011;8803;48.116;11.590;2023-11-19T08:25:07;0.37;;;0.37;;
17372;SDS011;8803;48.116;11.590;2023-11-19T08:27:12;0.37;;;0.37;;
17372;SDS011;8803;48.116;11.590;2023-11-19T08:29:25;0.40;;;0.40;;
17372;SDS011;8803;48.116;11.590;2023-11-19T08:31:30;0.60;;;0.50;;
17372;SDS011;8803;48.116;11.590;2023-11-19T08:33:43;0.40;;;0.40;;
17372;SDS011;8803;48.116;11.590;2023-11-19T08:35:47;0.43;;;0.43;;
17372;SDS011;8803;48.116;11.590;2023-11-19T08:38:00;0.47;;;0.40;;
17372;SDS011;8803;48.116;11.590;2023-11-19T08:40:07;0.37;;;0.30;;
17372;SDS011;8803;48.116;11.590;2023-11-19T08:42:21;0.43;;;0.40;;
17372;SDS011;8803;48.116;11.590;2023-11-19T08:44:25;0.53;;;0.50;;
17372;SDS011;8803;48.116;11.590;2023-11-19T08:46:38;0.77;;;0.60;;
17372;SDS011;8803;48.116;11.590;2023-11-19T08:48:44;0.70;;;0.50;;
17372;SDS011;8803;48.116;11.590;2023-11-19T08:50:57;0.57;;;0.40;;
17372;SDS011;8803;48.116;11.590;2023-11-19T08:53:02;0.43;;;0.40;;
17372;SDS011;8803;48.116;11.590;2023-11-19T08:55:19;0.30;;;0.30;;
17372;SDS011;8803;48.116;11.590;2023-11-19T08:57:23;0.47;;;0.47;;
17372;SDS011;8803;48.116;11.590;2023-11-19T08:59:36;0.30;;;0.30;;
17372;SDS011;8803;48.116;11.590;2023-11-19T09:01:41;0.80;;;0.40;;
17372;SDS011;8803;48.116;11.590;2023-11-19T09:03:54;0.37;;;0.37;;
17372;SDS011;8803;48.116;11.590;2023-11-19T09:05:59;0.40;;;0.40;;
17372;SDS011;8803;48.116;11.590;2023-11-19T09:08:12;0.30;;;0.30;;
17372;SDS011;8803;48.116;11.590;2023-11-19T09:10:17;0.63;;;0.47;;
17372;SDS011;8803;48.116;11.590;2023-11-19T09:12:33;0.50;;;0.30;;
17372;SDS011;8803;48.116;11.590;2023-11-19T09:16:49;0.50;;;0.40;;
17372;SDS011;8803;48.116;11.590;2023-11-19T09:18:53;0.40;;;0.40;;
17372;SDS011;8803;48.116;11.590;2023-11-19T09:21:06;0.73;;;0.53;;
17372;SDS011;8803;48.116;11.590;2023-11-19T09:23:12;0.50;;;0.50;;
17372;SDS011;8803;48.116;11.590;2023-11-19T09:25:16;0.43;;;0.40;;
17372;SDS011;8803;48.116;11.590;2023-11-19T09:27:30;0.40;;;0.40;;
17372;SDS011;8803;48.116;11.590;2023-11-19T09:29:34;0.70;;;0.50;;
17372;SDS011;8803;48.116;11.590;2023-11-19T09:31:47;0.40;;;0.40;;
17372;SDS011;8803;48.116;11.590;2023-11-19T09:33:51;0.40;;;0.40;;
17372;SDS011;8803;48.116;11.590;2023-11-19T09:36:06;0.80;;;0.47;;
17372;SDS011;8803;48.116;11.590;2023-11-19T09:40:23;0.70;;;0.50;;
17372;SDS011;8803;48.116;11.590;2023-11-19T09:42:29;0.70;;;0.70;;
17372;SDS011;8803;48.116;11.590;2023-11-19T09:44:37;0.80;;;0.70;;
17372;SDS011;8803;48.116;11.590;2023-11-19T09:46:51;0.80;;;0.50;;
17372;SDS011;8803;48.116;11.590;2023-11-19T09:48:56;1.20;;;0.70;;
17372;SDS011;8803;48.116;11.590;2023-11-19T09:51:10;0.80;;;0.70;;
17372;SDS011;8803;48.116;11.590;2023-11-19T09:53:15;0.70;;;0.50;;
17372;SDS011;8803;48.116;11.590;2023-11-19T09:55:28;0.70;;;0.50;;
17372;SDS011;8803;48.116;11.590;2023-11-19T09:57:32;0.30;;;0.30;;
17372;SDS011;8803;48.116;11.590;2023-11-19T09:59:39;0.50;;;0.50;;
17372;SDS011;8803;48.116;11.590;2023-11-19T10:01:52;0.57;;;0.57;;
17372;SDS011;8803;48.116;11.590;2023-11-19T10:03:58;1.47;;;0.60;;
17372;SDS011;8803;48.116;11.590;2023-11-19T10:06:11;0.60;;;0.60;;
17372;SDS011;8803;48.116;11.590;2023-11-19T10:08:17;1.80;;;1.40;;
17372;SDS011;8803;48.116;11.590;2023-11-19T10:10:30;2.50;;;1.70;;
17372;SDS011;8803;48.116;11.590;2023-11-19T10:12:35;1.20;;;1.10;;
17372;SDS011;8803;48.116;11.590;2023-11-19T10:14:48;1.20;;;0.90;;
17372;SDS011;8803;48.116;11.590;2023-11-19T10:16:53;0.77;;;0.60;;
17372;SDS011;8803;48.116;11.590;2023-11-19T10:19:07;0.70;;;0.60;;
17372;SDS011;8803;48.116;11.590;2023-11-19T10:21:13;1.07;;;0.70;;
17372;SDS011;8803;48.116;11.590;2023-11-19T10:23:26;0.67;;;0.63;;
17372;SDS011;8803;48.116;11.590;2023-11-19T10:25:30;0.60;;;0.50;;
17372;SDS011;8803;48.116;11.590;2023-11-19T10:27:45;0.83;;;0.70;;
17372;SDS011;8803;48.116;11.590;2023-11-19T10:29:49;1.10;;;0.80;;
17372;SDS011;8803;48.116;11.590;2023-11-19T10:32:02;1.33;;;0.70;;
17372;SDS011;8803;48.116;11.590;2023-11-19T10:34:13;0.40;;;0.40;;
17372;SDS011;8803;48.116;11.590;2023-11-19T10:36:42;0.60;;;0.60;;
17372;SDS011;8803;48.116;11.590;2023-11-19T10:38:52;0.50;;;0.50;;
17372;SDS011;8803;48.116;11.590;2023-11-19T10:41:06;0.90;;;0.83;;
17372;SDS011;8803;48.116;11.590;2023-11-19T10:43:11;0.90;;;0.50;;
17372;SDS011;8803;48.116;11.590;2023-11-19T10:45:24;0.73;;;0.50;;
17372;SDS011;8803;48.116;11.590;2023-11-19T10:47:29;0.53;;;0.53;;
17372;SDS011;8803;48.116;11.590;2023-11-19T10:49:35;0.40;;;0.40;;
17372;SDS011;8803;48.116;11.590;2023-11-19T10:51:48;4.03;;;3.33;;
17372;SDS011;8803;48.116;11.590;2023-11-19T10:53:54;3.73;;;2.70;;
17372;SDS011;8803;48.116;11.590;2023-11-19T10:56:02;2.00;;;1.63;;
17372;SDS011;8803;48.116;11.590;2023-11-19T10:58:17;0.80;;;0.73;;
17372;SDS011;8803;48.116;11.590;2023-11-19T11:00:22;1.13;;;0.60;;
17372;SDS011;8803;48.116;11.590;2023-11-19T11:02:36;0.60;;;0.50;;
17372;SDS011;8803;48.116;11.590;2023-11-19T11:04:44;0.50;;;0.50;;
17372;SDS011;8803;48.116;11.590;2023-11-19T11:06:50;0.50;;;0.40;;
17372;SDS011;8803;48.116;11.590;2023-11-19T11:08:56;0.60;;;0.60;;
17372;SDS011;8803;48.116;11.590;2023-11-19T11:11:02;0.70;;;0.60;;
17372;SDS011;8803;48.116;11.590;2023-11-19T11:13:16;0.90;;;0.60;;
17372;SDS011;8803;48.116;11.590;2023-11-19T11:15:21;0.53;;;0.53;;
17372;SDS011;8803;48.116;11.590;2023-11-19T11:17:27;0.70;;;0.50;;
17372;SDS011;8803;48.116;11.590;2023-11-19T11:19:33;0.67;;;0.53;;
17372;SDS011;8803;48.116;11.590;2023-11-19T11:21:38;0.70;;;0.50;;
17372;SDS011;8803;48.116;11.590;2023-11-19T11:29:16;1.07;;;0.70;;
17372;SDS011;8803;48.116;11.590;2023-11-19T11:31:31;0.87;;;0.40;;
17372;SDS011;8803;48.116;11.590;2023-11-19T11:33:44;0.60;;;0.40;;
17372;SDS011;8803;48.116;11.590;2023-11-19T11:36:11;8.10;;;1.00;;
17372;SDS011;8803;48.116;11.590;2023-11-19T11:38:21;3.20;;;0.77;;
17372;SDS011;8803;48.116;11.590;2023-11-19T11:40:33;7.40;;;0.60;;
17372;SDS011;8803;48.116;11.590;2023-11-19T11:42:38;3.27;;;0.90;;
17372;SDS011;8803;48.116;11.590;2023-11-19T11:44:58;1.27;;;0.60;;
17372;SDS011;8803;48.116;11.590;2023-11-19T11:47:04;0.40;;;0.40;;
17372;SDS011;8803;48.116;11.590;2023-11-19T11:49:09;4.03;;;0.70;;
17372;SDS011;8803;48.116;11.590;2023-11-19T11:51:14;0.83;;;0.50;;
17372;SDS011;8803;48.116;11.590;2023-11-19T11:53:19;0.43;;;0.37;;
17372;SDS011;8803;48.116;11.590;2023-11-19T11:55:25;2.20;;;0.60;;
17372;SDS011;8803;48.116;11.590;2023-11-19T11:57:31;0.37;;;0.37;;
17372;SDS011;8803;48.116;11.590;2023-11-19T11:59:51;0.20;;;0.20;;
17372;SDS011;8803;48.116;11.590;2023-11-19T12:01:59;0.90;;;0.60;;
17372;SDS011;8803;48.116;11.590;2023-11-19T12:04:12;0.40;;;0.40;;
17372;SDS011;8803;48.116;11.590;2023-11-19T12:06:21;0.47;;;0.40;;
17372;SDS011;8803;48.116;11.590;2023-11-19T12:08:26;0.50;;;0.40;;
17372;SDS011;8803;48.116;11.590;2023-11-19T12:10:34;0.60;;;0.50;;
17372;SDS011;8803;48.116;11.590;2023-11-19T12:12:40;0.67;;;0.37;;
17372;SDS011;8803;48.116;11.590;2023-11-19T12:15:05;0.37;;;0.37;;
17372;SDS011;8803;48.116;11.590;2023-11-19T12:17:26;0.70;;;0.43;;
17372;SDS011;8803;48.116;11.590;2023-11-19T12:19:50;0.40;;;0.40;;
17372;SDS011;8803;48.116;11.590;2023-11-19T12:21:54;0.93;;;0.50;;
17372;SDS011;8803;48.116;11.590;2023-11-19T12:24:00;0.57;;;0.57;;
17372;SDS011;8803;48.116;11.590;2023-11-19T12:26:07;0.60;;;0.50;;
17372;SDS011;8803;48.116;11.590;2023-11-19T12:28:13;0.63;;;0.50;;
17372;SDS011;8803;48.116;11.590;2023-11-19T12:30:21;0.70;;;0.40;;
17372;SDS011;8803;48.116;11.590;2023-11-19T12:32:27;0.40;;;0.40;;
17372;SDS011;8803;48.116;11.590;2023-11-19T12:34:34;0.40;;;0.40;;
17372;SDS011;8803;48.116;11.590;2023-11-19T12:36:39;2.63;;;0.40;;
17372;SDS011;8803;48.116;11.590;2023-11-19T12:38:44;0.57;;;0.40;;
17372;SDS011;8803;48.116;11.590;2023-11-19T12:41:02;0.73;;;0.60;;
17372;SDS011;8803;48.116;11.590;2023-11-19T12:43:08;0.50;;;0.50;;
17372;SDS011;8803;48.116;11.590;2023-11-19T12:45:13;0.80;;;0.60;;
17372;SDS011;8803;48.116;11.590;2023-11-19T12:47:18;0.87;;;0.60;;
17372;SDS011;8803;48.116;11.590;2023-11-19T12:49:22;0.40;;;0.40;;
17372;SDS011;8803;48.116;11.590;2023-11-19T12:51:35;0.50;;;0.50;;
17372;SDS011;8803;48.116;11.590;2023-11-19T12:53:48;0.47;;;0.47;;
17372;SDS011;8803;48.116;11.590;2023-11-19T12:55:54;0.57;;;0.57;;
17372;SDS011;8803;48.116;11.590;2023-11-19T12:58:00;0.70;;;0.47;;
17372;SDS011;8803;48.116;11.590;2023-11-19T13:00:17;0.60;;;0.50;;
17372;SDS011;8803;48.116;11.590;2023-11-19T13:02:44;0.53;;;0.47;;
17372;SDS011;8803;48.116;11.590;2023-11-19T13:04:49;0.50;;;0.50;;
17372;SDS011;8803;48.116;11.590;2023-11-19T13:06:54;2.20;;;0.57;;
17372;SDS011;8803;48.116;11.590;2023-11-19T13:08:59;0.70;;;0.60;;
17372;SDS011;8803;48.116;11.590;2023-11-19T13:11:05;0.40;;;0.40;;
17372;SDS011;8803;48.116;11.590;2023-11-19T13:13:10;0.67;;;0.60;;
17372;SDS011;8803;48.116;11.590;2023-11-19T13:15:23;0.73;;;0.70;;
17372;SDS011;8803;48.116;11.590;2023-11-19T13:17:28;0.80;;;0.67;;
17372;SDS011;8803;48.116;11.590;2023-11-19T13:19:41;0.40;;;0.40;;
17372;SDS011;8803;48.116;11.590;2023-11-19T13:21:46;1.20;;;0.60;;
17372;SDS011;8803;48.116;11.590;2023-11-19T13:23:50;0.57;;;0.53;;
17372;SDS011;8803;48.116;11.590;2023-11-19T13:25:55;0.40;;;0.40;;
17372;SDS011;8803;48.116;11.590;2023-11-19T13:27:59;0.63;;;0.63;;